createdAt,value
2023-04-26T00:00:15.959Z,1042.00
2023-04-26T00:01:16.144Z,1042.00
2023-04-26T00:02:14.987Z,1039.00
2023-04-26T00:03:16.196Z,1036.00
2023-04-26T00:04:15.190Z,1036.00
2023-04-26T00:05:15.271Z,1036.00
2023-04-26T00:06:16.014Z,1038.00
2023-04-26T00:07:16.083Z,1039.00
2023-04-26T00:08:16.068Z,1041.00
2023-04-26T00:09:15.141Z,1040.00
2023-04-26T00:10:16.152Z,1039.00
2023-04-26T00:11:15.159Z,1041.00
2023-04-26T00:12:16.176Z,1041.00
2023-04-26T00:13:15.243Z,1039.00
2023-04-26T00:14:15.171Z,1035.00
2023-04-26T00:15:15.252Z,1033.00
2023-04-26T00:16:15.242Z,1032.00
2023-04-26T00:17:16.178Z,1033.00
2023-04-26T00:18:16.219Z,1035.00
2023-04-26T00:19:16.234Z,1035.00
2023-04-26T00:20:16.289Z,1036.00
2023-04-26T00:21:16.330Z,1038.00
2023-04-26T00:22:16.368Z,1033.00
2023-04-26T00:23:16.421Z,1032.00
2023-04-26T00:24:16.453Z,1030.00
2023-04-26T00:25:16.504Z,1031.00
2023-04-26T00:26:16.551Z,1033.00
2023-04-26T00:27:16.583Z,1036.00
2023-04-26T00:28:15.606Z,1039.00
2023-04-26T00:29:16.783Z,1036.00
2023-04-26T00:30:16.703Z,1034.00
2023-04-26T00:31:15.824Z,1035.00
2023-04-26T00:32:16.796Z,1034.00
2023-04-26T00:33:16.833Z,1037.00
2023-04-26T00:34:16.864Z,1039.00
2023-04-26T00:35:16.916Z,1036.00
2023-04-26T00:36:16.975Z,1037.00
2023-04-26T00:37:17.016Z,1035.00
2023-04-26T00:38:17.055Z,1037.00
2023-04-26T00:39:16.013Z,1033.00
2023-04-26T00:40:17.049Z,1031.00
2023-04-26T00:41:16.997Z,1032.00
2023-04-26T00:42:17.001Z,1030.00
2023-04-26T00:43:16.012Z,1031.00
2023-04-26T00:44:15.985Z,1032.00
2023-04-26T00:45:16.016Z,1034.00
2023-04-26T00:46:16.073Z,1038.00
2023-04-26T00:47:15.978Z,1034.00
2023-04-26T00:48:16.972Z,1036.00
2023-04-26T00:49:15.995Z,1037.00
2023-04-26T00:50:16.976Z,1036.00
2023-04-26T00:51:16.975Z,1034.00
2023-04-26T00:52:16.960Z,1033.00
2023-04-26T00:53:16.977Z,1034.00
2023-04-26T00:54:16.933Z,1033.00
2023-04-26T00:55:15.949Z,1031.00
2023-04-26T00:56:16.972Z,1030.00
2023-04-26T00:57:16.941Z,1028.00
2023-04-26T00:58:15.954Z,1030.00
2023-04-26T00:59:15.935Z,1033.00
2023-04-26T01:00:16.923Z,1034.00
2023-04-26T01:01:17.004Z,1032.00
2023-04-26T01:02:16.983Z,1034.00
2023-04-26T01:03:17.062Z,1034.00
2023-04-26T01:04:17.045Z,1031.00
2023-04-26T01:05:15.888Z,1033.00
2023-04-26T01:06:15.893Z,1032.00
2023-04-26T01:07:16.890Z,1032.00
2023-04-26T01:08:16.911Z,1030.00
2023-04-26T01:09:16.485Z,1026.00
2023-04-26T01:10:16.495Z,1029.00
2023-04-26T01:11:16.953Z,1028.00
2023-04-26T01:12:16.962Z,1026.00
2023-04-26T01:13:16.962Z,1028.00
2023-04-26T01:14:16.992Z,1027.00
2023-04-26T01:15:15.955Z,1028.00
2023-04-26T01:16:16.989Z,1026.00
2023-04-26T01:17:16.224Z,1023.00
2023-04-26T01:18:17.398Z,1020.00
2023-04-26T01:19:16.938Z,1021.00
2023-04-26T01:20:15.946Z,1023.00
2023-04-26T01:21:16.916Z,1023.00
2023-04-26T01:22:15.929Z,1024.00
2023-04-26T01:23:16.928Z,1023.00
2023-04-26T01:24:16.930Z,1024.00
2023-04-26T01:25:16.915Z,1024.00
2023-04-26T01:26:16.940Z,1024.00
2023-04-26T01:27:15.921Z,1022.00
2023-04-26T01:28:16.926Z,1021.00
2023-04-26T01:29:16.981Z,1017.00
2023-04-26T01:30:17.038Z,1021.00
2023-04-26T01:31:17.017Z,1017.00
2023-04-26T01:32:17.094Z,1018.00
2023-04-26T01:33:16.936Z,1020.00
2023-04-26T01:34:16.902Z,1022.00
2023-04-26T01:35:15.916Z,1023.00
2023-04-26T01:36:16.920Z,1021.00
2023-04-26T01:37:16.923Z,1021.00
2023-04-26T01:38:15.932Z,1021.00
2023-04-26T01:39:16.926Z,1024.00
2023-04-26T01:40:16.923Z,1021.00
2023-04-26T01:41:16.929Z,1019.00
2023-04-26T01:42:16.914Z,1018.00
2023-04-26T01:43:16.961Z,1021.00
2023-04-26T01:44:16.930Z,1020.00
2023-04-26T01:45:15.918Z,1019.00
2023-04-26T01:46:16.992Z,1021.00
2023-04-26T01:47:16.909Z,1021.00
2023-04-26T01:48:16.910Z,1022.00
2023-04-26T01:49:15.931Z,1020.00
2023-04-26T01:50:16.899Z,1016.00
2023-04-26T01:51:16.921Z,1016.00
2023-04-26T01:52:16.912Z,1014.00
2023-04-26T01:53:16.909Z,1014.00
2023-04-26T01:54:16.905Z,1008.00
2023-04-26T01:55:15.924Z,1011.00
2023-04-26T01:56:16.977Z,1011.00
2023-04-26T01:57:15.916Z,1008.00
2023-04-26T01:58:16.936Z,1008.00
2023-04-26T01:59:16.948Z,1005.00
2023-04-26T02:00:18.633Z,1011.00
2023-04-26T02:01:16.976Z,1009.00
2023-04-26T02:02:16.964Z,1009.00
2023-04-26T02:03:16.023Z,1012.00
2023-04-26T02:04:16.909Z,1011.00
2023-04-26T02:05:15.963Z,1004.00
2023-04-26T02:06:16.910Z,1004.00
2023-04-26T02:07:16.908Z,1004.00
2023-04-26T02:08:15.891Z,1005.00
2023-04-26T02:09:16.934Z,1006.00
2023-04-26T02:10:16.873Z,1006.00
2023-04-26T02:11:16.896Z,1008.00
2023-04-26T02:12:15.857Z,1005.00
2023-04-26T02:13:15.843Z,1004.00
2023-04-26T02:14:16.897Z,1005.00
2023-04-26T02:15:16.863Z,1006.00
2023-04-26T02:16:16.951Z,1003.00
2023-04-26T02:17:16.831Z,1003.00
2023-04-26T02:18:16.821Z,1002.00
2023-04-26T02:19:16.812Z,1007.00
2023-04-26T02:20:15.802Z,1005.00
2023-04-26T02:21:16.856Z,1006.00
2023-04-26T02:22:15.787Z,1006.00
2023-04-26T02:23:15.849Z,1007.00
2023-04-26T02:24:16.794Z,1005.00
2023-04-26T02:25:16.789Z,1003.00
2023-04-26T02:26:16.780Z,1001.00
2023-04-26T02:27:15.762Z,1003.00
2023-04-26T02:28:16.745Z,1000.00
2023-04-26T02:29:15.754Z,997.00
2023-04-26T02:30:16.752Z,1000.00
2023-04-26T02:31:16.776Z,1001.00
2023-04-26T02:32:16.721Z,1005.00
2023-04-26T02:33:16.706Z,1008.00
2023-04-26T02:34:15.707Z,1007.00
2023-04-26T02:35:16.703Z,1006.00
2023-04-26T02:36:16.743Z,1005.00
2023-04-26T02:37:15.783Z,1005.00
2023-04-26T02:38:15.692Z,1003.00
2023-04-26T02:39:16.702Z,1002.00
2023-04-26T02:40:15.668Z,1001.00
2023-04-26T02:41:15.658Z,1002.00
2023-04-26T02:42:15.670Z,1003.00
2023-04-26T02:43:16.670Z,1002.00
2023-04-26T02:44:16.648Z,1002.00
2023-04-26T02:45:15.624Z,1008.00
2023-04-26T02:46:17.386Z,1006.00
2023-04-26T02:47:15.640Z,1008.00
2023-04-26T02:48:15.622Z,1006.00
2023-04-26T02:49:15.593Z,1002.00
2023-04-26T02:50:16.601Z,1003.00
2023-04-26T02:51:16.584Z,1004.00
2023-04-26T02:52:16.599Z,1003.00
2023-04-26T02:53:15.616Z,1000.00
2023-04-26T02:54:15.580Z,1001.00
2023-04-26T02:55:16.633Z,1003.00
2023-04-26T02:56:16.543Z,1001.00
2023-04-26T02:57:16.540Z,1000.00
2023-04-26T02:58:15.545Z,998.00
2023-04-26T02:59:16.575Z,994.00
2023-04-26T03:00:16.551Z,995.00
2023-04-26T03:01:15.568Z,991.00
2023-04-26T03:02:15.614Z,993.00
2023-04-26T03:03:15.732Z,998.00
2023-04-26T03:04:16.701Z,1002.00
2023-04-26T03:05:16.504Z,1002.00
2023-04-26T03:06:16.487Z,1000.00
2023-04-26T03:07:15.489Z,1003.00
2023-04-26T03:08:15.513Z,1002.00
2023-04-26T03:09:16.476Z,1001.00
2023-04-26T03:10:16.483Z,1000.00
2023-04-26T03:11:15.434Z,999.00
2023-04-26T03:12:16.474Z,995.00
2023-04-26T03:13:15.432Z,996.00
2023-04-26T03:14:15.440Z,995.00
2023-04-26T03:15:15.432Z,994.00
2023-04-26T03:16:15.466Z,994.00
2023-04-26T03:17:16.458Z,991.00
2023-04-26T03:18:15.398Z,986.00
2023-04-26T03:19:15.441Z,990.00
2023-04-26T03:20:16.433Z,991.00
2023-04-26T03:21:16.379Z,995.00
2023-04-26T03:22:15.370Z,994.00
2023-04-26T03:23:16.383Z,994.00
2023-04-26T03:24:15.386Z,997.00
2023-04-26T03:25:16.390Z,1000.00
2023-04-26T03:26:16.388Z,998.00
2023-04-26T03:27:16.342Z,1000.00
2023-04-26T03:28:16.380Z,994.00
2023-04-26T03:29:16.332Z,991.00
2023-04-26T03:30:16.364Z,993.00
2023-04-26T03:31:16.322Z,995.00
2023-04-26T03:32:16.382Z,994.00
2023-04-26T03:33:16.299Z,996.00
2023-04-26T03:34:15.282Z,997.00
2023-04-26T03:35:16.275Z,992.00
2023-04-26T03:36:16.367Z,991.00
2023-04-26T03:37:15.287Z,993.00
2023-04-26T03:38:15.308Z,992.00
2023-04-26T03:39:16.245Z,992.00
2023-04-26T03:40:16.232Z,990.00
2023-04-26T03:41:16.258Z,988.00
2023-04-26T03:42:15.237Z,990.00
2023-04-26T03:43:16.233Z,988.00
2023-04-26T03:44:16.221Z,988.00
2023-04-26T03:45:16.239Z,987.00
2023-04-26T03:46:16.260Z,990.00
2023-04-26T03:47:15.229Z,993.00
2023-04-26T03:48:16.203Z,990.00
2023-04-26T03:49:15.230Z,990.00
2023-04-26T03:50:15.190Z,987.00
2023-04-26T03:51:16.197Z,988.00
2023-04-26T03:52:16.221Z,988.00
2023-04-26T03:53:16.193Z,987.00
2023-04-26T03:54:16.185Z,987.00
2023-04-26T03:55:16.234Z,988.00
2023-04-26T03:56:15.236Z,989.00
2023-04-26T03:57:15.256Z,986.00
2023-04-26T03:58:15.273Z,986.00
2023-04-26T03:59:16.252Z,984.00
2023-04-26T04:00:15.266Z,989.00
2023-04-26T04:01:15.290Z,991.00
2023-04-26T04:02:15.396Z,995.00
2023-04-26T04:03:15.391Z,992.00
2023-04-26T04:04:16.505Z,993.00
2023-04-26T04:05:15.505Z,994.00
2023-04-26T04:06:15.339Z,995.00
2023-04-26T04:07:15.387Z,995.00
2023-04-26T04:08:15.355Z,995.00
2023-04-26T04:09:15.369Z,991.00
2023-04-26T04:10:16.361Z,987.00
2023-04-26T04:11:16.673Z,987.00
2023-04-26T04:12:16.417Z,988.00
2023-04-26T04:13:16.430Z,989.00
2023-04-26T04:14:16.512Z,989.00
2023-04-26T04:15:15.480Z,986.00
2023-04-26T04:16:15.523Z,984.00
2023-04-26T04:17:15.539Z,987.00
2023-04-26T04:18:16.630Z,991.00
2023-04-26T04:19:15.569Z,988.00
2023-04-26T04:20:16.606Z,988.00
2023-04-26T04:21:16.632Z,987.00
2023-04-26T04:22:15.662Z,985.00
2023-04-26T04:23:15.689Z,985.00
2023-04-26T04:24:16.720Z,982.00
2023-04-26T04:25:16.726Z,982.00
2023-04-26T04:26:16.773Z,980.00
2023-04-26T04:27:16.803Z,981.00
2023-04-26T04:28:17.022Z,979.00
2023-04-26T04:29:16.883Z,978.00
2023-04-26T04:30:15.885Z,979.00
2023-04-26T04:31:16.955Z,980.00
2023-04-26T04:32:16.972Z,980.00
2023-04-26T04:33:16.990Z,981.00
2023-04-26T04:34:15.999Z,980.00
2023-04-26T04:35:17.003Z,978.00
2023-04-26T04:36:17.049Z,978.00
2023-04-26T04:37:17.110Z,979.00
2023-04-26T04:38:17.142Z,982.00
2023-04-26T04:39:16.252Z,983.00
2023-04-26T04:40:17.234Z,980.00
2023-04-26T04:41:17.308Z,981.00
2023-04-26T04:42:17.320Z,981.00
2023-04-26T04:43:16.382Z,983.00
2023-04-26T04:44:17.416Z,982.00
2023-04-26T04:45:17.469Z,983.00
2023-04-26T04:46:17.497Z,979.00
2023-04-26T04:47:17.499Z,980.00
2023-04-26T04:48:17.554Z,976.00
2023-04-26T04:49:17.586Z,972.00
2023-04-26T04:50:17.643Z,971.00
2023-04-26T04:51:16.672Z,973.00
2023-04-26T04:52:18.802Z,971.00
2023-04-26T04:53:17.738Z,972.00
2023-04-26T04:54:17.823Z,973.00
2023-04-26T04:55:17.873Z,971.00
2023-04-26T04:56:17.932Z,971.00
2023-04-26T04:57:17.941Z,968.00
2023-04-26T04:58:17.988Z,972.00
2023-04-26T04:59:18.025Z,973.00
2023-04-26T05:00:18.066Z,971.00
2023-04-26T05:01:18.217Z,969.00
2023-04-26T05:02:18.313Z,968.00
2023-04-26T05:03:17.434Z,972.00
2023-04-26T05:04:18.509Z,975.00
2023-04-26T05:05:18.390Z,974.00
2023-04-26T05:06:18.499Z,976.00
2023-04-26T05:07:17.502Z,974.00
2023-04-26T05:08:17.602Z,972.00
2023-04-26T05:09:18.656Z,972.00
2023-04-26T05:10:17.729Z,970.00
2023-04-26T05:11:17.752Z,970.00
2023-04-26T05:12:18.849Z,970.00
2023-04-26T05:13:18.886Z,969.00
2023-04-26T05:14:18.953Z,974.00
2023-04-26T05:15:19.033Z,975.00
2023-04-26T05:16:19.158Z,976.00
2023-04-26T05:17:18.185Z,979.00
2023-04-26T05:18:19.204Z,977.00
2023-04-26T05:19:19.270Z,972.00
2023-04-26T05:20:18.345Z,974.00
2023-04-26T05:21:19.404Z,974.00
2023-04-26T05:22:19.468Z,973.00
2023-04-26T05:23:19.525Z,974.00
2023-04-26T05:24:18.595Z,976.00
2023-04-26T05:25:20.255Z,978.00
2023-04-26T05:26:18.659Z,981.00
2023-04-26T05:27:19.679Z,980.00
2023-04-26T05:28:18.677Z,979.00
2023-04-26T05:29:18.703Z,979.00
2023-04-26T05:30:18.627Z,979.00
2023-04-26T05:31:19.644Z,981.00
2023-04-26T05:32:18.700Z,979.00
2023-04-26T05:33:19.786Z,977.00
2023-04-26T05:34:19.088Z,979.00
2023-04-26T05:35:20.037Z,980.00
2023-04-26T05:36:19.605Z,979.00
2023-04-26T05:37:18.572Z,982.00
2023-04-26T05:38:19.766Z,982.00
2023-04-26T05:39:19.692Z,985.00
2023-04-26T05:40:19.568Z,986.00
2023-04-26T05:41:18.654Z,984.00
2023-04-26T05:42:18.556Z,982.00
2023-04-26T05:43:19.063Z,991.00
2023-04-26T05:44:19.821Z,994.00
2023-04-26T05:45:19.854Z,995.00
2023-04-26T05:46:20.192Z,997.00
2023-04-26T05:47:19.101Z,1000.00
2023-04-26T05:48:20.263Z,1006.00
2023-04-26T05:49:20.050Z,1012.00
2023-04-26T05:50:20.101Z,1018.00
2023-04-26T05:51:20.216Z,1023.00
2023-04-26T05:52:19.817Z,1028.00
2023-04-26T05:53:19.926Z,1031.00
2023-04-26T05:54:20.095Z,1041.00
2023-04-26T05:55:20.211Z,1053.00
2023-04-26T05:56:20.239Z,1062.00
2023-04-26T05:58:20.613Z,1076.00
2023-04-26T05:59:20.581Z,1086.00
2023-04-26T06:00:20.317Z,1102.00
2023-04-26T06:01:20.364Z,1136.00
2023-04-26T06:02:21.003Z,1155.00
2023-04-26T06:03:21.017Z,1186.00
2023-04-26T06:04:20.250Z,1260.00
2023-04-26T06:05:20.830Z,1279.00
2023-04-26T06:06:20.512Z,1379.00
2023-04-26T06:07:20.502Z,1397.00
2023-04-26T06:08:20.278Z,1410.00
2023-04-26T06:09:20.319Z,1419.00
2023-04-26T06:10:20.361Z,1432.00
2023-04-26T06:11:19.417Z,1456.00
2023-04-26T06:12:19.495Z,1489.00
2023-04-26T06:13:20.488Z,1513.00
2023-04-26T06:14:29.984Z,1531.00
2023-04-26T06:15:20.566Z,1547.00
2023-04-26T06:16:20.620Z,1604.00
2023-04-26T06:17:19.676Z,1626.00
2023-04-26T06:18:20.505Z,1639.00
2023-04-26T06:19:19.517Z,1667.00
2023-04-26T06:20:20.482Z,1699.00
2023-04-26T06:21:20.517Z,1726.00
2023-04-26T06:22:20.495Z,1737.00
2023-04-26T06:23:20.507Z,1748.00
2023-04-26T06:24:20.455Z,1764.00
2023-04-26T06:25:20.473Z,1779.00
2023-04-26T06:26:19.443Z,1797.00
2023-04-26T06:27:19.444Z,1817.00
2023-04-26T06:28:19.448Z,1836.00
2023-04-26T06:29:19.481Z,1855.00
2023-04-26T06:30:19.436Z,1883.00
2023-04-26T06:31:20.433Z,1905.00
2023-04-26T06:32:20.416Z,1918.00
2023-04-26T06:33:19.402Z,1947.00
2023-04-26T06:34:20.409Z,1967.00
2023-04-26T06:35:20.647Z,1981.00
2023-04-26T06:36:20.526Z,2012.00
2023-04-26T06:37:20.424Z,2065.00
2023-04-26T06:38:20.597Z,2067.00
2023-04-26T06:39:20.404Z,2084.00
2023-04-26T06:40:20.363Z,2101.00
2023-04-26T06:41:19.622Z,2111.00
2023-04-26T06:42:19.435Z,2127.00
2023-04-26T06:43:20.351Z,2145.00
2023-04-26T06:44:20.354Z,2159.00
2023-04-26T06:45:20.324Z,2182.00
2023-04-26T06:46:20.410Z,2206.00
2023-04-26T06:47:20.413Z,2225.00
2023-04-26T06:48:20.328Z,2239.00
2023-04-26T06:49:20.421Z,2263.00
2023-04-26T06:50:20.296Z,2283.00
2023-04-26T06:51:20.388Z,2326.00
2023-04-26T06:52:21.513Z,2355.00
2023-04-26T06:53:23.041Z,2378.00
2023-04-26T06:54:20.805Z,2394.00
2023-04-26T06:55:19.587Z,2407.00
2023-04-26T06:56:20.450Z,2434.00
2023-04-26T06:57:19.528Z,2467.00
2023-04-26T06:58:20.983Z,2511.00
2023-04-26T06:59:19.452Z,2535.00
2023-04-26T07:00:19.432Z,2555.00
2023-04-26T07:01:20.476Z,2564.00
2023-04-26T07:02:20.537Z,2434.00
2023-04-26T07:03:20.524Z,2439.00
2023-04-26T07:04:19.721Z,2329.00
2023-04-26T07:05:20.902Z,2310.00
2023-04-26T07:06:19.412Z,2219.00
2023-04-26T07:07:19.423Z,2051.00
2023-04-26T07:08:20.395Z,2228.00
2023-04-26T07:09:20.394Z,2223.00
2023-04-26T07:10:20.365Z,2191.00
2023-04-26T07:11:19.353Z,2178.00
2023-04-26T07:12:19.336Z,2172.00
2023-04-26T07:13:20.363Z,2172.00
2023-04-26T07:14:20.380Z,2169.00
2023-04-26T07:15:19.392Z,2165.00
2023-04-26T07:16:20.363Z,2162.00
2023-04-26T07:17:20.322Z,2165.00
2023-04-26T07:18:20.468Z,2173.00
2023-04-26T07:19:19.279Z,2181.00
2023-04-26T07:20:20.337Z,2191.00
2023-04-26T07:21:20.288Z,2220.00
2023-04-26T07:22:19.414Z,2238.00
2023-04-26T07:23:20.309Z,2245.00
2023-04-26T07:24:19.256Z,2252.00
2023-04-26T07:25:20.361Z,2263.00
2023-04-26T07:26:20.226Z,2274.00
2023-04-26T07:27:20.303Z,2289.00
2023-04-26T07:28:19.211Z,2317.00
2023-04-26T07:29:19.234Z,2339.00
2023-04-26T07:30:20.202Z,2355.00
2023-04-26T07:31:20.232Z,2377.00
2023-04-26T07:32:20.228Z,2400.00
2023-04-26T07:33:20.222Z,2418.00
2023-04-26T07:34:20.245Z,2433.00
2023-04-26T07:35:19.179Z,2445.00
2023-04-26T07:36:20.661Z,2460.00
2023-04-26T07:37:20.404Z,2474.00
2023-04-26T07:38:20.401Z,2511.00
2023-04-26T07:39:19.530Z,2530.00
2023-04-26T07:40:20.778Z,2543.00
2023-04-26T07:41:20.457Z,2565.00
2023-04-26T07:42:20.445Z,2576.00
2023-04-26T07:43:20.731Z,2612.00
2023-04-26T07:44:19.916Z,2642.00
2023-04-26T07:45:20.659Z,2664.00
2023-04-26T07:46:20.782Z,2691.00
2023-04-26T07:47:20.742Z,2754.00
2023-04-26T07:48:21.004Z,2770.00
2023-04-26T07:49:20.721Z,2765.00
2023-04-26T07:50:20.712Z,2764.00
2023-04-26T07:51:20.746Z,2762.00
2023-04-26T07:52:19.716Z,2758.00
2023-04-26T07:53:20.976Z,2761.00
2023-04-26T07:54:20.738Z,2765.00
2023-04-26T07:55:19.748Z,2764.00
2023-04-26T07:56:20.697Z,2769.00
2023-04-26T07:57:20.821Z,2769.00
2023-04-26T07:58:20.757Z,2765.00
2023-04-26T07:59:19.680Z,2764.00
2023-04-26T08:00:19.678Z,2761.00
2023-04-26T08:01:20.672Z,2763.00
2023-04-26T08:02:21.729Z,2757.00
2023-04-26T08:03:20.897Z,2750.00
2023-04-26T08:04:20.728Z,2746.00
2023-04-26T08:05:20.815Z,2740.00
2023-04-26T08:06:19.775Z,2735.00
2023-04-26T08:07:20.644Z,2734.00
2023-04-26T08:08:20.681Z,2731.00
2023-04-26T08:09:19.646Z,2726.00
2023-04-26T08:10:20.622Z,2715.00
2023-04-26T08:11:20.711Z,2715.00
2023-04-26T08:12:20.609Z,2714.00
2023-04-26T08:13:19.635Z,2709.00
2023-04-26T08:14:19.585Z,2698.00
2023-04-26T08:15:19.602Z,2684.00
2023-04-26T08:16:20.651Z,2681.00
2023-04-26T08:17:20.655Z,2673.00
2023-04-26T08:18:20.607Z,2665.00
2023-04-26T08:19:19.543Z,2661.00
2023-04-26T08:20:19.561Z,2654.00
2023-04-26T08:21:19.550Z,2649.00
2023-04-26T08:22:19.538Z,2642.00
2023-04-26T08:23:20.534Z,2642.00
2023-04-26T08:24:19.611Z,2640.00
2023-04-26T08:25:20.620Z,2634.00
2023-04-26T08:26:19.641Z,2629.00
2023-04-26T08:27:19.715Z,2617.00
2023-04-26T08:28:21.028Z,2611.00
2023-04-26T08:29:19.854Z,2605.00
2023-04-26T08:30:20.811Z,2601.00
2023-04-26T08:31:20.992Z,2593.00
2023-04-26T08:32:19.900Z,2587.00
2023-04-26T08:33:20.918Z,2585.00
2023-04-26T08:34:19.916Z,2587.00
2023-04-26T08:35:19.965Z,2588.00
2023-04-26T08:36:21.015Z,2592.00
2023-04-26T08:37:20.012Z,2590.00
2023-04-26T08:38:21.068Z,2586.00
2023-04-26T08:39:21.042Z,2582.00
2023-04-26T08:40:21.072Z,2576.00
2023-04-26T08:41:21.083Z,2576.00
2023-04-26T08:42:21.116Z,2565.00
2023-04-26T08:43:20.171Z,2562.00
2023-04-26T08:44:20.174Z,2557.00
2023-04-26T08:45:21.340Z,2555.00
2023-04-26T08:46:21.182Z,2553.00
2023-04-26T08:47:21.193Z,2550.00
2023-04-26T08:48:20.177Z,2545.00
2023-04-26T08:49:21.232Z,2538.00
2023-04-26T08:50:21.217Z,2535.00
2023-04-26T08:51:20.225Z,2535.00
2023-04-26T08:52:21.220Z,2530.00
2023-04-26T08:53:20.223Z,2520.00
2023-04-26T08:54:20.221Z,2514.00
2023-04-26T08:55:21.192Z,2517.00
2023-04-26T08:56:21.329Z,2521.00
2023-04-26T08:57:21.270Z,2514.00
2023-04-26T08:58:21.630Z,2515.00
2023-04-26T08:59:21.207Z,2511.00
2023-04-26T09:00:21.252Z,2510.00
2023-04-26T09:01:20.303Z,2505.00
2023-04-26T09:02:20.343Z,2499.00
2023-04-26T09:03:21.306Z,2492.00
2023-04-26T09:04:21.503Z,2486.00
2023-04-26T09:05:20.286Z,2485.00
2023-04-26T09:06:21.241Z,2481.00
2023-04-26T09:07:21.260Z,2477.00
2023-04-26T09:08:21.259Z,2474.00
2023-04-26T09:09:20.270Z,2466.00
2023-04-26T09:10:21.628Z,2456.00
2023-04-26T09:11:21.284Z,2451.00
2023-04-26T09:12:21.291Z,2442.00
2023-04-26T09:13:21.501Z,2437.00
2023-04-26T09:14:21.291Z,2430.00
2023-04-26T09:15:20.275Z,2428.00
2023-04-26T09:16:20.334Z,2419.00
2023-04-26T09:17:21.442Z,2414.00
2023-04-26T09:18:21.237Z,2413.00
2023-04-26T09:19:21.268Z,2411.00
2023-04-26T09:20:21.288Z,2409.00
2023-04-26T09:21:21.274Z,2398.00
2023-04-26T09:22:21.249Z,2385.00
2023-04-26T09:23:21.346Z,2381.00
2023-04-26T09:24:20.238Z,2375.00
2023-04-26T09:25:22.679Z,2370.00
2023-04-26T09:26:21.234Z,2360.00
2023-04-26T09:27:21.282Z,1948.00
2023-04-26T09:28:20.229Z,1649.00
2023-04-26T09:29:21.266Z,1367.00
2023-04-26T09:30:21.195Z,1280.00
2023-04-26T09:31:20.229Z,1291.00
2023-04-26T09:32:21.207Z,1216.00
2023-04-26T09:33:21.221Z,1250.00
2023-04-26T09:34:21.198Z,1322.00
2023-04-26T09:35:21.227Z,1425.00
2023-04-26T09:36:21.163Z,1173.00
2023-04-26T09:37:21.162Z,1281.00
2023-04-26T09:38:21.149Z,1283.00
2023-04-26T09:39:21.150Z,1197.00
2023-04-26T09:40:21.162Z,1195.00
2023-04-26T09:41:21.182Z,1187.00
2023-04-26T09:42:20.147Z,1188.00
2023-04-26T09:43:21.118Z,1212.00
2023-04-26T09:44:21.094Z,1121.00
2023-04-26T09:45:21.078Z,1163.00
2023-04-26T09:46:21.105Z,1124.00
2023-04-26T09:47:20.147Z,1091.00
2023-04-26T09:48:20.088Z,975.00
2023-04-26T09:49:21.554Z,929.00
2023-04-26T09:50:20.104Z,988.00
2023-04-26T09:51:20.079Z,961.00
2023-04-26T09:52:21.050Z,948.00
2023-04-26T09:53:21.573Z,964.00
2023-04-26T09:54:21.059Z,972.00
2023-04-26T09:55:34.100Z,977.00
2023-04-26T09:56:21.091Z,983.00
2023-04-26T09:57:21.297Z,1001.00
2023-04-26T09:58:21.071Z,1021.00
2023-04-26T09:59:20.990Z,1023.00
2023-04-26T10:00:20.979Z,1026.00
2023-04-26T10:01:20.159Z,1015.00
2023-04-26T10:02:20.075Z,1022.00
2023-04-26T10:03:21.117Z,1021.00
2023-04-26T10:04:21.029Z,1018.00
2023-04-26T10:05:22.128Z,1027.00
2023-04-26T10:06:20.075Z,1028.00
2023-04-26T10:07:19.936Z,1042.00
2023-04-26T10:08:20.922Z,1039.00
2023-04-26T10:09:20.949Z,1068.00
2023-04-26T10:10:19.932Z,1079.00
2023-04-26T10:11:20.939Z,1088.00
2023-04-26T10:12:19.959Z,1091.00
2023-04-26T10:13:19.906Z,1102.00
2023-04-26T10:14:21.262Z,1106.00
2023-04-26T10:15:21.073Z,1091.00
2023-04-26T10:16:19.971Z,1086.00
2023-04-26T10:17:21.244Z,1086.00
2023-04-26T10:18:20.892Z,1079.00
2023-04-26T10:19:20.881Z,1063.00
2023-04-26T10:20:20.880Z,1129.00
2023-04-26T10:21:20.854Z,1112.00
2023-04-26T10:22:20.832Z,1126.00
2023-04-26T10:23:20.931Z,1120.00
2023-04-26T10:24:20.845Z,1126.00
2023-04-26T10:25:19.870Z,1098.00
2023-04-26T10:26:19.861Z,1053.00
2023-04-26T10:27:20.943Z,1053.00
2023-04-26T10:28:19.921Z,1068.00
2023-04-26T10:29:20.904Z,1089.00
2023-04-26T10:30:20.964Z,1084.00
2023-04-26T10:31:20.990Z,1083.00
2023-04-26T10:32:20.932Z,1087.00
2023-04-26T10:33:19.951Z,1084.00
2023-04-26T10:34:20.917Z,1086.00
2023-04-26T10:35:20.931Z,1092.00
2023-04-26T10:36:20.936Z,1099.00
2023-04-26T10:37:21.050Z,1106.00
2023-04-26T10:38:21.209Z,1090.00
2023-04-26T10:39:20.937Z,1086.00
2023-04-26T10:40:20.924Z,1083.00
2023-04-26T10:41:20.945Z,1070.00
2023-04-26T10:42:21.944Z,1064.00
2023-04-26T10:43:19.976Z,1066.00
2023-04-26T10:44:20.914Z,1059.00
2023-04-26T10:45:20.968Z,1053.00
2023-04-26T10:46:20.893Z,1063.00
2023-04-26T10:47:19.903Z,1055.00
2023-04-26T10:48:20.909Z,1065.00
2023-04-26T10:49:20.890Z,1070.00
2023-04-26T10:50:20.869Z,1064.00
2023-04-26T10:51:20.846Z,1067.00
2023-04-26T10:52:19.873Z,1068.00
2023-04-26T10:53:19.874Z,1081.00
2023-04-26T10:54:19.864Z,1069.00
2023-04-26T10:55:19.839Z,1040.00
2023-04-26T10:56:20.812Z,1015.00
2023-04-26T10:57:19.823Z,1032.00
2023-04-26T10:58:19.797Z,1044.00
2023-04-26T10:59:36.105Z,1046.00
2023-04-26T11:00:20.825Z,1035.00
2023-04-26T11:01:20.819Z,1029.00
2023-04-26T11:02:20.798Z,1028.00
2023-04-26T11:03:20.986Z,1003.00
2023-04-26T11:04:20.952Z,1006.00
2023-04-26T11:05:20.745Z,1006.00
2023-04-26T11:06:20.739Z,999.00
2023-04-26T11:07:20.742Z,961.00
2023-04-26T11:08:20.727Z,981.00
2023-04-26T11:09:20.796Z,991.00
2023-04-26T11:10:20.726Z,991.00
2023-04-26T11:11:19.724Z,1004.00
2023-04-26T11:12:19.829Z,1003.00
2023-04-26T11:13:20.717Z,999.00
2023-04-26T11:14:20.683Z,991.00
2023-04-26T11:15:19.683Z,980.00
2023-04-26T11:16:20.776Z,995.00
2023-04-26T11:17:20.729Z,994.00
2023-04-26T11:18:19.678Z,978.00
2023-04-26T11:19:20.696Z,974.00
2023-04-26T11:20:19.663Z,967.00
2023-04-26T11:21:19.635Z,972.00
2023-04-26T11:22:19.664Z,963.00
2023-04-26T11:23:20.619Z,954.00
2023-04-26T11:24:19.614Z,957.00
2023-04-26T11:25:20.772Z,946.00
2023-04-26T11:26:20.619Z,943.00
2023-04-26T11:27:20.629Z,940.00
2023-04-26T11:28:20.631Z,952.00
2023-04-26T11:29:19.658Z,956.00
2023-04-26T11:30:20.644Z,923.00
2023-04-26T11:31:20.605Z,924.00
2023-04-26T11:32:19.569Z,942.00
2023-04-26T11:33:20.620Z,948.00
2023-04-26T11:34:19.582Z,955.00
2023-04-26T11:35:20.606Z,967.00
2023-04-26T11:36:19.667Z,988.00
2023-04-26T11:37:20.551Z,999.00
2023-04-26T11:38:20.529Z,1013.00
2023-04-26T11:39:20.536Z,1018.00
2023-04-26T11:40:20.551Z,1024.00
2023-04-26T11:41:20.604Z,1024.00
2023-04-26T11:42:20.516Z,1024.00
2023-04-26T11:43:19.587Z,1030.00
2023-04-26T11:44:20.481Z,1036.00
2023-04-26T11:45:20.487Z,1039.00
2023-04-26T11:46:20.579Z,1042.00
2023-04-26T11:47:19.511Z,1041.00
2023-04-26T11:48:19.600Z,1045.00
2023-04-26T11:49:20.482Z,1049.00
2023-04-26T11:50:19.467Z,1050.00
2023-04-26T11:51:20.426Z,1050.00
2023-04-26T11:52:20.536Z,1051.00
2023-04-26T11:53:20.425Z,1057.00
2023-04-26T11:54:20.432Z,1058.00
2023-04-26T11:55:20.439Z,1060.00
2023-04-26T11:56:20.444Z,1067.00
2023-04-26T11:57:19.571Z,1065.00
2023-04-26T11:58:20.383Z,1066.00
2023-04-26T11:59:19.406Z,1065.00
2023-04-26T12:00:20.390Z,1065.00
2023-04-26T12:01:20.363Z,1065.00
2023-04-26T12:02:19.522Z,1062.00
2023-04-26T12:03:19.501Z,1071.00
2023-04-26T12:04:20.639Z,1073.00
2023-04-26T12:05:19.389Z,1074.00
2023-04-26T12:06:19.351Z,1082.00
2023-04-26T12:07:20.357Z,1084.00
2023-04-26T12:08:19.322Z,1089.00
2023-04-26T12:09:19.312Z,1091.00
2023-04-26T12:10:20.321Z,1093.00
2023-04-26T12:11:19.317Z,1092.00
2023-04-26T12:12:19.336Z,1093.00